sensor_id;sensor_type;location;lat;lon;timestamp;pressure;altitude;pressure_sealevel;temperature;humidity
57604;BME280;43429;47.380;8.484;2022-07-06T00:01:48;97310.53;;;17.14;96.12
57604;BME280;43429;47.380;8.484;2022-07-06T00:04:16;97310.81;;;17.19;91.75
57604;BME280;43429;47.380;8.484;2022-07-06T00:06:42;97306.25;;;17.19;95.03
57604;BME280;43429;47.380;8.484;2022-07-06T00:09:09;97311.41;;;17.06;100.00
57604;BME280;43429;47.380;8.484;2022-07-06T00:11:36;97309.81;;;16.97;100.00
57604;BME280;43429;47.380;8.484;2022-07-06T00:14:02;97309.84;;;16.89;100.00
57604;BME280;43429;47.380;8.484;2022-07-06T00:16:28;97305.59;;;16.72;100.00
57604;BME280;43429;47.380;8.484;2022-07-06T00:18:54;97312.53;;;16.66;100.00
57604;BME280;43429;47.380;8.484;2022-07-06T00:21:21;97301.66;;;16.51;100.00
57604;BME280;43429;47.380;8.484;2022-07-06T00:23:47;97309.44;;;16.46;100.00
57604;BME280;43429;47.380;8.484;2022-07-06T00:26:13;97307.78;;;16.37;100.00
57604;BME280;43429;47.380;8.484;2022-07-06T00:28:40;97299.56;;;16.30;100.00
57604;BME280;43429;47.380;8.484;2022-07-06T00:31:06;97301.28;;;16.54;100.00
57604;BME280;43429;47.380;8.484;2022-07-06T00:33:32;97306.31;;;16.57;100.00
57604;BME280;43429;47.380;8.484;2022-07-06T00:35:58;97308.53;;;16.54;100.00
57604;BME280;43429;47.380;8.484;2022-07-06T00:38:25;97307.97;;;16.35;100.00
57604;BME280;43429;47.380;8.484;2022-07-06T00:40:51;97311.59;;;16.51;100.00
57604;BME280;43429;47.380;8.484;2022-07-06T00:43:17;97313.16;;;16.68;100.00
57604;BME280;43429;47.380;8.484;2022-07-06T00:45:44;97312.84;;;16.71;100.00
57604;BME280;43429;47.380;8.484;2022-07-06T00:48:10;97313.19;;;16.60;100.00
57604;BME280;43429;47.380;8.484;2022-07-06T00:50:38;97308.50;;;16.62;100.00
57604;BME280;43429;47.380;8.484;2022-07-06T00:53:05;97312.97;;;16.69;100.00
57604;BME280;43429;47.380;8.484;2022-07-06T00:55:34;97322.53;;;16.80;100.00
57604;BME280;43429;47.380;8.484;2022-07-06T00:58:02;97317.34;;;16.79;100.00
57604;BME280;43429;47.380;8.484;2022-07-06T01:00:29;97311.72;;;16.88;100.00
57604;BME280;43429;47.380;8.484;2022-07-06T01:02:57;97308.91;;;16.82;100.00
57604;BME280;43429;47.380;8.484;2022-07-06T01:05:24;97309.78;;;16.74;100.00
57604;BME280;43429;47.380;8.484;2022-07-06T01:07:51;97298.88;;;16.59;100.00
57604;BME280;43429;47.380;8.484;2022-07-06T01:10:19;97299.81;;;16.43;100.00
57604;BME280;43429;47.380;8.484;2022-07-06T01:12:47;97303.28;;;16.29;100.00
57604;BME280;43429;47.380;8.484;2022-07-06T01:15:17;97295.34;;;16.28;100.00
57604;BME280;43429;47.380;8.484;2022-07-06T01:17:44;97301.75;;;16.35;100.00
57604;BME280;43429;47.380;8.484;2022-07-06T01:20:12;97309.16;;;16.33;100.00
57604;BME280;43429;47.380;8.484;2022-07-06T01:22:39;97308.38;;;16.24;100.00
57604;BME280;43429;47.380;8.484;2022-07-06T01:25:06;97304.13;;;16.30;100.00
57604;BME280;43429;47.380;8.484;2022-07-06T01:27:33;97305.16;;;16.21;100.00
57604;BME280;43429;47.380;8.484;2022-07-06T01:30:02;97310.75;;;16.11;100.00
57604;BME280;43429;47.380;8.484;2022-07-06T01:32:28;97300.16;;;16.09;100.00
57604;BME280;43429;47.380;8.484;2022-07-06T01:34:54;97302.75;;;15.95;100.00
57604;BME280;43429;47.380;8.484;2022-07-06T01:37:21;97301.78;;;15.79;100.00
57604;BME280;43429;47.380;8.484;2022-07-06T01:39:47;97301.44;;;15.82;100.00
57604;BME280;43429;47.380;8.484;2022-07-06T01:42:13;97303.50;;;15.72;100.00
57604;BME280;43429;47.380;8.484;2022-07-06T01:44:39;97300.63;;;15.57;100.00
57604;BME280;43429;47.380;8.484;2022-07-06T01:47:06;97305.69;;;15.44;100.00
57604;BME280;43429;47.380;8.484;2022-07-06T01:49:32;97302.50;;;15.32;100.00
57604;BME280;43429;47.380;8.484;2022-07-06T01:51:58;97303.38;;;15.17;100.00
57604;BME280;43429;47.380;8.484;2022-07-06T01:54:25;97301.53;;;15.09;100.00
57604;BME280;43429;47.380;8.484;2022-07-06T01:56:51;97296.97;;;15.01;100.00
57604;BME280;43429;47.380;8.484;2022-07-06T01:59:17;97298.31;;;14.97;100.00
57604;BME280;43429;47.380;8.484;2022-07-06T02:01:43;97301.69;;;14.91;100.00
57604;BME280;43429;47.380;8.484;2022-07-06T02:04:09;97304.66;;;14.72;100.00
57604;BME280;43429;47.380;8.484;2022-07-06T02:06:35;97304.84;;;14.70;100.00
57604;BME280;43429;47.380;8.484;2022-07-06T02:09:01;97305.03;;;14.69;100.00
57604;BME280;43429;47.380;8.484;2022-07-06T02:11:28;97303.34;;;14.68;100.00
57604;BME280;43429;47.380;8.484;2022-07-06T02:13:55;97306.66;;;14.53;100.00
57604;BME280;43429;47.380;8.484;2022-07-06T02:16:21;97309.34;;;14.53;100.00
57604;BME280;43429;47.380;8.484;2022-07-06T02:18:47;97305.81;;;14.61;100.00
57604;BME280;43429;47.380;8.484;2022-07-06T02:21:13;97304.28;;;14.50;100.00
57604;BME280;43429;47.380;8.484;2022-07-06T02:23:40;97304.75;;;14.38;100.00
57604;BME280;43429;47.380;8.484;2022-07-06T02:26:06;97306.91;;;14.34;100.00
57604;BME280;43429;47.380;8.484;2022-07-06T02:28:33;97302.56;;;14.33;100.00
57604;BME280;43429;47.380;8.484;2022-07-06T02:30:59;97304.94;;;14.44;100.00
57604;BME280;43429;47.380;8.484;2022-07-06T02:33:25;97299.56;;;14.44;100.00
57604;BME280;43429;47.380;8.484;2022-07-06T02:35:51;97306.84;;;14.52;100.00
57604;BME280;43429;47.380;8.484;2022-07-06T02:38:18;97302.41;;;14.43;100.00
57604;BME280;43429;47.380;8.484;2022-07-06T02:40:44;97301.47;;;14.52;100.00
57604;BME280;43429;47.380;8.484;2022-07-06T02:43:10;97308.78;;;14.42;100.00
57604;BME280;43429;47.380;8.484;2022-07-06T02:45:37;97305.75;;;14.45;100.00
57604;BME280;43429;47.380;8.484;2022-07-06T02:48:03;97301.56;;;14.42;100.00
57604;BME280;43429;47.380;8.484;2022-07-06T02:50:30;97313.81;;;14.36;100.00
57604;BME280;43429;47.380;8.484;2022-07-06T02:52:56;97312.59;;;14.23;100.00
57604;BME280;43429;47.380;8.484;2022-07-06T02:55:24;97309.59;;;14.34;100.00
57604;BME280;43429;47.380;8.484;2022-07-06T02:57:50;97309.91;;;14.23;100.00
57604;BME280;43429;47.380;8.484;2022-07-06T03:00:16;97308.75;;;14.33;100.00
57604;BME280;43429;47.380;8.484;2022-07-06T03:02:43;97310.91;;;14.22;100.00
57604;BME280;43429;47.380;8.484;2022-07-06T03:05:09;97313.59;;;14.22;100.00
57604;BME280;43429;47.380;8.484;2022-07-06T03:07:35;97317.44;;;14.19;100.00
57604;BME280;43429;47.380;8.484;2022-07-06T03:10:01;97316.25;;;14.14;100.00
57604;BME280;43429;47.380;8.484;2022-07-06T03:12:27;97313.38;;;14.07;100.00
57604;BME280;43429;47.380;8.484;2022-07-06T03:14:54;97316.66;;;13.93;100.00
57604;BME280;43429;47.380;8.484;2022-07-06T03:17:20;97318.69;;;13.99;100.00
57604;BME280;43429;47.380;8.484;2022-07-06T03:19:47;97316.34;;;13.96;100.00
57604;BME280;43429;47.380;8.484;2022-07-06T03:22:13;97321.34;;;13.91;100.00
57604;BME280;43429;47.380;8.484;2022-07-06T03:24:39;97326.53;;;13.92;100.00
57604;BME280;43429;47.380;8.484;2022-07-06T03:27:05;97326.72;;;13.91;100.00
57604;BME280;43429;47.380;8.484;2022-07-06T03:29:32;97327.25;;;13.94;100.00
57604;BME280;43429;47.380;8.484;2022-07-06T03:31:59;97328.09;;;13.95;100.00
57604;BME280;43429;47.380;8.484;2022-07-06T03:34:25;97327.72;;;13.90;100.00
57604;BME280;43429;47.380;8.484;2022-07-06T03:36:52;97325.91;;;13.98;100.00
57604;BME280;43429;47.380;8.484;2022-07-06T03:39:18;97320.03;;;13.95;100.00
57604;BME280;43429;47.380;8.484;2022-07-06T03:41:44;97323.19;;;13.90;100.00
57604;BME280;43429;47.380;8.484;2022-07-06T03:44:11;97328.81;;;14.05;100.00
57604;BME280;43429;47.380;8.484;2022-07-06T03:46:37;97326.25;;;13.95;100.00
57604;BME280;43429;47.380;8.484;2022-07-06T03:49:03;97334.19;;;14.05;100.00
57604;BME280;43429;47.380;8.484;2022-07-06T03:51:29;97332.09;;;13.99;100.00
57604;BME280;43429;47.380;8.484;2022-07-06T03:53:56;97333.88;;;14.16;100.00
57604;BME280;43429;47.380;8.484;2022-07-06T03:56:22;97335.50;;;14.09;100.00
57604;BME280;43429;47.380;8.484;2022-07-06T03:58:54;97334.31;;;14.03;100.00
57604;BME280;43429;47.380;8.484;2022-07-06T04:01:21;97341.38;;;14.04;100.00
57604;BME280;43429;47.380;8.484;2022-07-06T04:03:47;97336.84;;;14.05;100.00
57604;BME280;43429;47.380;8.484;2022-07-06T04:06:13;97339.72;;;14.12;100.00
57604;BME280;43429;47.380;8.484;2022-07-06T04:08:39;97337.06;;;14.12;100.00
57604;BME280;43429;47.380;8.484;2022-07-06T04:11:06;97342.13;;;14.23;100.00
57604;BME280;43429;47.380;8.484;2022-07-06T04:13:33;97335.66;;;14.42;100.00
57604;BME280;43429;47.380;8.484;2022-07-06T04:15:59;97337.91;;;14.54;100.00
57604;BME280;43429;47.380;8.484;2022-07-06T04:18:25;97339.59;;;14.72;100.00
57604;BME280;43429;47.380;8.484;2022-07-06T04:20:52;97337.28;;;14.85;100.00
57604;BME280;43429;47.380;8.484;2022-07-06T04:23:18;97336.44;;;14.93;100.00
57604;BME280;43429;47.380;8.484;2022-07-06T04:25:44;97333.78;;;15.01;100.00
57604;BME280;43429;47.380;8.484;2022-07-06T04:28:11;97337.50;;;15.16;100.00
57604;BME280;43429;47.380;8.484;2022-07-06T04:30:37;97343.03;;;15.23;100.00
57604;BME280;43429;47.380;8.484;2022-07-06T04:33:03;97341.69;;;15.35;100.00
57604;BME280;43429;47.380;8.484;2022-07-06T04:35:29;97349.06;;;15.49;100.00
57604;BME280;43429;47.380;8.484;2022-07-06T04:37:56;97339.97;;;15.58;100.00
57604;BME280;43429;47.380;8.484;2022-07-06T04:40:22;97345.38;;;15.75;100.00
57604;BME280;43429;47.380;8.484;2022-07-06T04:42:48;97352.22;;;15.94;100.00
57604;BME280;43429;47.380;8.484;2022-07-06T04:45:15;97352.00;;;16.11;100.00
57604;BME280;43429;47.380;8.484;2022-07-06T04:47:41;97355.13;;;16.31;100.00
57604;BME280;43429;47.380;8.484;2022-07-06T04:50:10;97351.22;;;16.42;100.00
57604;BME280;43429;47.380;8.484;2022-07-06T04:52:37;97347.47;;;16.51;100.00
57604;BME280;43429;47.380;8.484;2022-07-06T04:55:03;97346.56;;;16.59;100.00
57604;BME280;43429;47.380;8.484;2022-07-06T04:57:31;97354.13;;;16.72;100.00
57604;BME280;43429;47.380;8.484;2022-07-06T04:59:57;97355.28;;;16.77;100.00
57604;BME280;43429;47.380;8.484;2022-07-06T05:02:24;97357.75;;;17.10;100.00
57604;BME280;43429;47.380;8.484;2022-07-06T05:04:50;97356.00;;;17.17;100.00
57604;BME280;43429;47.380;8.484;2022-07-06T05:07:17;97353.38;;;17.32;100.00
57604;BME280;43429;47.380;8.484;2022-07-06T05:09:43;97353.13;;;17.41;100.00
57604;BME280;43429;47.380;8.484;2022-07-06T05:12:10;97348.66;;;17.48;100.00
57604;BME280;43429;47.380;8.484;2022-07-06T05:14:36;97352.53;;;17.54;100.00
57604;BME280;43429;47.380;8.484;2022-07-06T05:17:02;97350.81;;;17.76;100.00
57604;BME280;43429;47.380;8.484;2022-07-06T05:19:29;97347.97;;;18.07;96.90
57604;BME280;43429;47.380;8.484;2022-07-06T05:21:56;97350.75;;;17.99;95.23
57604;BME280;43429;47.380;8.484;2022-07-06T05:24:23;97352.06;;;18.18;95.67
57604;BME280;43429;47.380;8.484;2022-07-06T05:26:49;97349.16;;;18.34;93.20
57604;BME280;43429;47.380;8.484;2022-07-06T05:29:15;97347.78;;;18.38;90.51
57604;BME280;43429;47.380;8.484;2022-07-06T05:31:41;97353.81;;;18.55;90.96
57604;BME280;43429;47.380;8.484;2022-07-06T05:34:07;97353.59;;;18.71;89.76
57604;BME280;43429;47.380;8.484;2022-07-06T05:36:34;97353.78;;;18.85;86.76
57604;BME280;43429;47.380;8.484;2022-07-06T05:39:01;97354.03;;;18.90;82.22
57604;BME280;43429;47.380;8.484;2022-07-06T05:41:27;97358.69;;;19.17;80.49
57604;BME280;43429;47.380;8.484;2022-07-06T05:43:53;97358.03;;;19.37;81.60
57604;BME280;43429;47.380;8.484;2022-07-06T05:46:20;97357.41;;;19.35;78.03
57604;BME280;43429;47.380;8.484;2022-07-06T05:48:46;97369.97;;;19.42;76.04
57604;BME280;43429;47.380;8.484;2022-07-06T05:53:56;97366.84;;;19.60;72.80
57604;BME280;43429;47.380;8.484;2022-07-06T05:56:23;97364.34;;;19.87;74.21
57604;BME280;43429;47.380;8.484;2022-07-06T05:58:49;97357.25;;;19.86;73.00
57604;BME280;43429;47.380;8.484;2022-07-06T06:01:15;97366.00;;;19.60;68.65
57604;BME280;43429;47.380;8.484;2022-07-06T06:03:41;97363.13;;;19.68;69.01
57604;BME280;43429;47.380;8.484;2022-07-06T06:06:07;97367.31;;;19.98;67.37
57604;BME280;43429;47.380;8.484;2022-07-06T06:08:33;97371.03;;;20.25;62.79
57604;BME280;43429;47.380;8.484;2022-07-06T06:11:02;97372.88;;;19.62;63.84
57604;BME280;43429;47.380;8.484;2022-07-06T06:13:28;97369.94;;;20.13;62.05
57604;BME280;43429;47.380;8.484;2022-07-06T06:15:54;97364.28;;;20.08;61.94
57604;BME280;43429;47.380;8.484;2022-07-06T06:18:21;97367.09;;;20.21;62.12
57604;BME280;43429;47.380;8.484;2022-07-06T06:20:47;97378.00;;;20.34;63.28
57604;BME280;43429;47.380;8.484;2022-07-06T06:23:13;97375.00;;;20.23;61.25
57604;BME280;43429;47.380;8.484;2022-07-06T06:25:39;97369.88;;;20.00;61.60
57604;BME280;43429;47.380;8.484;2022-07-06T06:28:08;97369.84;;;20.34;60.58
57604;BME280;43429;47.380;8.484;2022-07-06T06:30:36;97370.31;;;20.38;60.36
57604;BME280;43429;47.380;8.484;2022-07-06T06:33:06;97371.50;;;20.64;58.59
57604;BME280;43429;47.380;8.484;2022-07-06T06:35:33;97367.34;;;20.68;58.79
57604;BME280;43429;47.380;8.484;2022-07-06T06:37:59;97368.63;;;20.37;57.88
57604;BME280;43429;47.380;8.484;2022-07-06T06:40:25;97371.03;;;20.53;59.13
57604;BME280;43429;47.380;8.484;2022-07-06T06:42:51;97367.13;;;20.63;56.46
57604;BME280;43429;47.380;8.484;2022-07-06T06:45:18;97370.53;;;20.78;55.24
57604;BME280;43429;47.380;8.484;2022-07-06T06:47:44;97367.19;;;20.82;56.55
57604;BME280;43429;47.380;8.484;2022-07-06T06:50:10;97375.63;;;21.14;55.35
57604;BME280;43429;47.380;8.484;2022-07-06T06:52:36;97376.94;;;21.25;55.18
57604;BME280;43429;47.380;8.484;2022-07-06T06:55:03;97375.63;;;21.14;55.51
57604;BME280;43429;47.380;8.484;2022-07-06T06:57:29;97378.66;;;21.32;51.03
57604;BME280;43429;47.380;8.484;2022-07-06T06:59:55;97374.78;;;21.00;53.91
57604;BME280;43429;47.380;8.484;2022-07-06T07:02:23;97365.28;;;21.44;52.01
57604;BME280;43429;47.380;8.484;2022-07-06T07:04:49;97370.72;;;21.38;53.18
57604;BME280;43429;47.380;8.484;2022-07-06T07:07:15;97363.63;;;21.50;52.43
57604;BME280;43429;47.380;8.484;2022-07-06T07:09:42;97364.88;;;21.54;52.25
57604;BME280;43429;47.380;8.484;2022-07-06T07:12:08;97360.78;;;21.03;52.18
57604;BME280;43429;47.380;8.484;2022-07-06T07:14:35;97364.03;;;21.40;51.11
57604;BME280;43429;47.380;8.484;2022-07-06T07:17:01;97357.56;;;21.41;51.92
57604;BME280;43429;47.380;8.484;2022-07-06T07:19:28;97356.31;;;21.83;50.03
57604;BME280;43429;47.380;8.484;2022-07-06T07:21:54;97355.69;;;21.42;51.80
57604;BME280;43429;47.380;8.484;2022-07-06T07:24:21;97356.31;;;21.44;53.55
57604;BME280;43429;47.380;8.484;2022-07-06T07:26:47;97354.84;;;21.81;51.74
57604;BME280;43429;47.380;8.484;2022-07-06T07:29:13;97356.50;;;22.02;50.46
57604;BME280;43429;47.380;8.484;2022-07-06T07:31:39;97353.19;;;21.93;49.77
57604;BME280;43429;47.380;8.484;2022-07-06T07:34:05;97359.44;;;21.41;51.49
57604;BME280;43429;47.380;8.484;2022-07-06T07:36:32;97364.28;;;21.72;51.35
57604;BME280;43429;47.380;8.484;2022-07-06T07:38:58;97359.88;;;22.04;51.93
57604;BME280;43429;47.380;8.484;2022-07-06T07:41:24;97350.22;;;22.21;49.11
57604;BME280;43429;47.380;8.484;2022-07-06T07:43:51;97351.94;;;21.89;50.30
57604;BME280;43429;47.380;8.484;2022-07-06T07:46:17;97357.34;;;21.76;51.45
57604;BME280;43429;47.380;8.484;2022-07-06T07:48:43;97356.81;;;22.58;49.47
57604;BME280;43429;47.380;8.484;2022-07-06T07:51:09;97349.41;;;22.92;49.87
57604;BME280;43429;47.380;8.484;2022-07-06T07:53:36;97348.47;;;23.05;48.29
57604;BME280;43429;47.380;8.484;2022-07-06T07:56:02;97351.31;;;22.78;47.21
57604;BME280;43429;47.380;8.484;2022-07-06T07:58:28;97355.53;;;23.51;47.43
57604;BME280;43429;47.380;8.484;2022-07-06T08:00:54;97344.16;;;22.84;48.89
57604;BME280;43429;47.380;8.484;2022-07-06T08:03:20;97349.38;;;22.85;47.96
57604;BME280;43429;47.380;8.484;2022-07-06T08:05:47;97348.53;;;22.40;48.78
57604;BME280;43429;47.380;8.484;2022-07-06T08:08:13;97353.69;;;22.61;48.18
57604;BME280;43429;47.380;8.484;2022-07-06T08:10:40;97352.00;;;23.43;47.62
57604;BME280;43429;47.380;8.484;2022-07-06T08:13:06;97345.72;;;23.75;45.37
57604;BME280;43429;47.380;8.484;2022-07-06T08:15:33;97347.94;;;22.89;48.03
57604;BME280;43429;47.380;8.484;2022-07-06T08:17:59;97352.72;;;23.32;45.79
57604;BME280;43429;47.380;8.484;2022-07-06T08:20:26;97354.53;;;23.38;46.34
57604;BME280;43429;47.380;8.484;2022-07-06T08:22:53;97345.22;;;23.84;45.13
57604;BME280;43429;47.380;8.484;2022-07-06T08:25:20;97350.81;;;23.33;47.05
57604;BME280;43429;47.380;8.484;2022-07-06T08:27:46;97343.31;;;23.85;46.94
57604;BME280;43429;47.380;8.484;2022-07-06T08:30:13;97351.47;;;23.66;46.71
57604;BME280;43429;47.380;8.484;2022-07-06T08:32:39;97344.56;;;22.87;47.96
57604;BME280;43429;47.380;8.484;2022-07-06T08:35:06;97353.19;;;22.78;48.88
57604;BME280;43429;47.380;8.484;2022-07-06T08:37:32;97343.41;;;23.47;46.36
57604;BME280;43429;47.380;8.484;2022-07-06T08:39:58;97341.56;;;23.40;47.04
57604;BME280;43429;47.380;8.484;2022-07-06T08:42:29;97347.19;;;23.14;49.02
57604;BME280;43429;47.380;8.484;2022-07-06T08:44:58;97350.06;;;23.82;46.87
57604;BME280;43429;47.380;8.484;2022-07-06T08:47:26;97349.09;;;23.95;45.44
57604;BME280;43429;47.380;8.484;2022-07-06T08:49:52;97355.97;;;23.79;45.55
57604;BME280;43429;47.380;8.484;2022-07-06T08:52:19;97358.72;;;24.23;43.59
57604;BME280;43429;47.380;8.484;2022-07-06T08:54:45;97371.81;;;23.64;45.43
57604;BME280;43429;47.380;8.484;2022-07-06T08:57:12;97373.13;;;23.55;45.41
57604;BME280;43429;47.380;8.484;2022-07-06T08:59:39;97365.06;;;24.16;44.26
57604;BME280;43429;47.380;8.484;2022-07-06T09:02:09;97359.66;;;23.91;46.43
57604;BME280;43429;47.380;8.484;2022-07-06T09:04:36;97362.88;;;24.25;44.21
57604;BME280;43429;47.380;8.484;2022-07-06T09:07:04;97363.63;;;24.57;43.29
57604;BME280;43429;47.380;8.484;2022-07-06T09:09:30;97367.19;;;24.39;43.83
57604;BME280;43429;47.380;8.484;2022-07-06T09:11:57;97371.28;;;24.67;43.11
57604;BME280;43429;47.380;8.484;2022-07-06T09:14:23;97362.66;;;24.70;43.01
57604;BME280;43429;47.380;8.484;2022-07-06T09:16:52;97366.41;;;24.69;44.38
57604;BME280;43429;47.380;8.484;2022-07-06T09:19:20;97370.94;;;24.93;42.80
57604;BME280;43429;47.380;8.484;2022-07-06T09:21:46;97371.34;;;24.97;43.22
57604;BME280;43429;47.380;8.484;2022-07-06T09:24:13;97369.13;;;24.69;43.55
57604;BME280;43429;47.380;8.484;2022-07-06T09:26:39;97364.97;;;24.66;43.70
57604;BME280;43429;47.380;8.484;2022-07-06T09:29:06;97370.91;;;24.82;43.55
57604;BME280;43429;47.380;8.484;2022-07-06T09:31:33;97367.34;;;24.81;42.32
57604;BME280;43429;47.380;8.484;2022-07-06T09:34:00;97365.88;;;24.97;44.08
57604;BME280;43429;47.380;8.484;2022-07-06T09:36:40;97364.09;;;24.54;41.89
57604;BME280;43429;47.380;8.484;2022-07-06T09:39:23;97369.72;;;24.34;42.44
57604;BME280;43429;47.380;8.484;2022-07-06T09:41:50;97366.84;;;24.29;40.62
57604;BME280;43429;47.380;8.484;2022-07-06T09:44:25;97375.66;;;24.86;41.67
57604;BME280;43429;47.380;8.484;2022-07-06T09:46:52;97369.28;;;25.11;40.00
57604;BME280;43429;47.380;8.484;2022-07-06T09:49:19;97374.03;;;24.49;41.86
57604;BME280;43429;47.380;8.484;2022-07-06T09:51:49;97369.34;;;25.22;40.33
57604;BME280;43429;47.380;8.484;2022-07-06T09:54:18;97373.53;;;24.88;40.33
57604;BME280;43429;47.380;8.484;2022-07-06T09:56:46;97371.66;;;25.07;40.14
57604;BME280;43429;47.380;8.484;2022-07-06T09:59:17;97374.84;;;24.67;40.88
57604;BME280;43429;47.380;8.484;2022-07-06T10:01:43;97373.91;;;24.92;41.43
57604;BME280;43429;47.380;8.484;2022-07-06T10:04:10;97366.94;;;24.96;41.35
57604;BME280;43429;47.380;8.484;2022-07-06T10:06:38;97366.47;;;25.17;40.58
57604;BME280;43429;47.380;8.484;2022-07-06T10:09:07;97361.97;;;25.05;40.51
57604;BME280;43429;47.380;8.484;2022-07-06T10:11:37;97366.50;;;25.29;42.29
57604;BME280;43429;47.380;8.484;2022-07-06T10:14:05;97368.31;;;25.35;42.62
57604;BME280;43429;47.380;8.484;2022-07-06T10:16:34;97361.34;;;25.21;41.27
57604;BME280;43429;47.380;8.484;2022-07-06T10:19:02;97364.50;;;25.36;41.82
57604;BME280;43429;47.380;8.484;2022-07-06T10:21:30;97364.59;;;25.60;41.88
57604;BME280;43429;47.380;8.484;2022-07-06T10:23:57;97362.97;;;25.40;41.22
57604;BME280;43429;47.380;8.484;2022-07-06T10:26:26;97361.47;;;25.44;40.61
57604;BME280;43429;47.380;8.484;2022-07-06T10:28:53;97365.38;;;25.00;40.59
57604;BME280;43429;47.380;8.484;2022-07-06T10:31:19;97358.72;;;25.14;41.25
57604;BME280;43429;47.380;8.484;2022-07-06T10:33:47;97357.50;;;25.29;39.81
57604;BME280;43429;47.380;8.484;2022-07-06T10:36:13;97347.28;;;25.36;40.39
57604;BME280;43429;47.380;8.484;2022-07-06T10:38:40;97350.50;;;25.74;41.76
57604;BME280;43429;47.380;8.484;2022-07-06T10:41:11;97353.72;;;25.83;39.26
57604;BME280;43429;47.380;8.484;2022-07-06T10:43:42;97335.78;;;26.22;38.12
57604;BME280;43429;47.380;8.484;2022-07-06T10:46:09;97344.63;;;25.71;39.73
57604;BME280;43429;47.380;8.484;2022-07-06T10:48:37;97340.28;;;25.82;40.44
57604;BME280;43429;47.380;8.484;2022-07-06T10:51:04;97331.63;;;25.85;40.43
57604;BME280;43429;47.380;8.484;2022-07-06T10:53:32;97330.53;;;25.97;40.02
57604;BME280;43429;47.380;8.484;2022-07-06T10:56:02;97337.81;;;26.27;40.62
57604;BME280;43429;47.380;8.484;2022-07-06T10:58:36;97329.22;;;26.23;40.19
57604;BME280;43429;47.380;8.484;2022-07-06T11:01:04;97323.88;;;26.52;40.37
57604;BME280;43429;47.380;8.484;2022-07-06T11:03:36;97323.41;;;26.20;41.36
57604;BME280;43429;47.380;8.484;2022-07-06T11:06:06;97318.28;;;26.59;39.81
57604;BME280;43429;47.380;8.484;2022-07-06T11:08:48;97316.31;;;26.71;40.07
57604;BME280;43429;47.380;8.484;2022-07-06T11:11:17;97319.81;;;26.54;38.60
57604;BME280;43429;47.380;8.484;2022-07-06T11:13:47;97317.91;;;26.55;38.68
57604;BME280;43429;47.380;8.484;2022-07-06T11:16:15;97318.41;;;26.17;39.33
57604;BME280;43429;47.380;8.484;2022-07-06T11:18:46;97316.75;;;26.16;37.71
57604;BME280;43429;47.380;8.484;2022-07-06T11:21:21;97304.84;;;26.45;38.23
57604;BME280;43429;47.380;8.484;2022-07-06T11:23:49;97310.44;;;26.15;38.09
57604;BME280;43429;47.380;8.484;2022-07-06T11:26:16;97305.94;;;25.97;38.13
57604;BME280;43429;47.380;8.484;2022-07-06T11:28:45;97308.75;;;26.14;37.87
57604;BME280;43429;47.380;8.484;2022-07-06T11:31:11;97308.13;;;25.54;39.22
57604;BME280;43429;47.380;8.484;2022-07-06T11:33:38;97311.28;;;26.04;40.43
57604;BME280;43429;47.380;8.484;2022-07-06T11:36:15;97313.03;;;26.45;37.95
57604;BME280;43429;47.380;8.484;2022-07-06T11:38:42;97304.34;;;26.25;36.78
57604;BME280;43429;47.380;8.484;2022-07-06T11:41:09;97300.09;;;26.81;37.89
57604;BME280;43429;47.380;8.484;2022-07-06T11:43:37;97307.34;;;25.88;38.19
57604;BME280;43429;47.380;8.484;2022-07-06T11:46:20;97298.06;;;26.24;37.72
57604;BME280;43429;47.380;8.484;2022-07-06T11:48:48;97292.41;;;26.66;37.84
57604;BME280;43429;47.380;8.484;2022-07-06T11:51:14;97296.78;;;26.67;38.81
57604;BME280;43429;47.380;8.484;2022-07-06T11:53:43;97292.47;;;26.19;39.10
57604;BME280;43429;47.380;8.484;2022-07-06T11:56:10;97293.69;;;27.04;37.41
57604;BME280;43429;47.380;8.484;2022-07-06T11:58:38;97293.41;;;26.37;37.63
57604;BME280;43429;47.380;8.484;2022-07-06T12:01:06;97290.31;;;26.45;38.85
57604;BME280;43429;47.380;8.484;2022-07-06T12:03:32;97304.88;;;26.10;37.33
57604;BME280;43429;47.380;8.484;2022-07-06T12:06:01;97294.50;;;26.47;36.97
57604;BME280;43429;47.380;8.484;2022-07-06T12:08:27;97290.38;;;27.02;36.18
57604;BME280;43429;47.380;8.484;2022-07-06T12:10:53;97296.34;;;27.73;35.67
57604;BME280;43429;47.380;8.484;2022-07-06T12:13:21;97298.44;;;28.38;34.65
57604;BME280;43429;47.380;8.484;2022-07-06T12:15:47;97294.50;;;27.95;34.50
57604;BME280;43429;47.380;8.484;2022-07-06T12:18:13;97290.59;;;27.91;34.29
57604;BME280;43429;47.380;8.484;2022-07-06T12:20:42;97295.06;;;28.97;33.07
57604;BME280;43429;47.380;8.484;2022-07-06T12:23:09;97289.13;;;28.83;32.60
57604;BME280;43429;47.380;8.484;2022-07-06T12:25:36;97283.22;;;30.14;31.51
57604;BME280;43429;47.380;8.484;2022-07-06T12:28:03;97283.34;;;30.35;31.04
57604;BME280;43429;47.380;8.484;2022-07-06T12:30:29;97282.59;;;30.45;29.40
57604;BME280;43429;47.380;8.484;2022-07-06T12:33:13;97274.41;;;31.43;29.04
57604;BME280;43429;47.380;8.484;2022-07-06T12:35:39;97285.28;;;30.92;28.61
57604;BME280;43429;47.380;8.484;2022-07-06T12:38:06;97272.91;;;31.05;29.25
57604;BME280;43429;47.380;8.484;2022-07-06T12:40:33;97266.88;;;32.25;27.82
57604;BME280;43429;47.380;8.484;2022-07-06T12:43:01;97263.13;;;30.66;29.87
57604;BME280;43429;47.380;8.484;2022-07-06T12:45:30;97272.06;;;27.98;34.73
57604;BME280;43429;47.380;8.484;2022-07-06T12:47:57;97273.56;;;27.89;34.81
57604;BME280;43429;47.380;8.484;2022-07-06T12:50:30;97270.81;;;30.12;30.38
57604;BME280;43429;47.380;8.484;2022-07-06T12:52:57;97265.47;;;31.15;29.26
57604;BME280;43429;47.380;8.484;2022-07-06T12:55:25;97263.56;;;31.21;29.10
57604;BME280;43429;47.380;8.484;2022-07-06T12:57:53;97265.84;;;31.80;28.63